Arcadia, Illinois
Current Conditions -  °F | °C
As of 12:35 AM on Thursday 23 Oct 2014 (Local Time) from KIJX Reporting Station
Clear Clear  
Wind Chill: 41°   Ceiling: Unl
Heat Index: 43°   Visibility: 10mi
Dew Point: 38°   Wind: 5mph
Humidity: 81%   Direction: 130°SE
Pressure: 30.22"   Gusts: NA
Location:  39.7413°N, 90.2138°W
Report Text: KIJX 230535Z AUTO 13004KT 10SM CLR 06/03 A3022 RMK AO2 T00630033
Loading
Personal Weather Stations






























Interactive Weather Map
Tropical Storm Tracking
New forecast layout! Learn more

10-Day Weather Forecast

Advertisements
Track Severe Weather on mobile